sensor_id;sensor_type;location;lat;lon;timestamp;pressure;altitude;pressure_sealevel;temperature
18161;BMP280;9205;52.032;4.314;2023-03-01T00:02:19;103229.22;;;4.61
18161;BMP280;9205;52.032;4.314;2023-03-01T00:04:50;103234.13;;;4.58
18161;BMP280;9205;52.032;4.314;2023-03-01T00:07:19;103245.19;;;4.62
18161;BMP280;9205;52.032;4.314;2023-03-01T00:09:51;103237.38;;;4.56
18161;BMP280;9205;52.032;4.314;2023-03-01T00:12:18;103242.41;;;4.56
18161;BMP280;9205;52.032;4.314;2023-03-01T00:14:46;103231.19;;;4.48
18161;BMP280;9205;52.032;4.314;2023-03-01T00:17:14;103237.19;;;4.51
18161;BMP280;9205;52.032;4.314;2023-03-01T00:19:47;103229.59;;;4.50
18161;BMP280;9205;52.032;4.314;2023-03-01T00:22:27;103222.69;;;4.46
18161;BMP280;9205;52.032;4.314;2023-03-01T00:24:55;103225.16;;;4.44
18161;BMP280;9205;52.032;4.314;2023-03-01T00:27:23;103221.09;;;4.48
18161;BMP280;9205;52.032;4.314;2023-03-01T00:29:52;103213.50;;;4.46
18161;BMP280;9205;52.032;4.314;2023-03-01T00:32:20;103227.13;;;4.51
18161;BMP280;9205;52.032;4.314;2023-03-01T00:34:51;103225.28;;;4.47
18161;BMP280;9205;52.032;4.314;2023-03-01T00:37:27;103216.81;;;4.45
18161;BMP280;9205;52.032;4.314;2023-03-01T00:39:55;103216.81;;;4.45
18161;BMP280;9205;52.032;4.314;2023-03-01T00:42:23;103223.69;;;4.49
18161;BMP280;9205;52.032;4.314;2023-03-01T00:44:51;103219.25;;;4.44
18161;BMP280;9205;52.032;4.314;2023-03-01T00:47:18;103216.13;;;4.49
18161;BMP280;9205;52.032;4.314;2023-03-01T00:49:49;103222.09;;;4.51
18161;BMP280;9205;52.032;4.314;2023-03-01T00:52:19;103218.63;;;4.49
18161;BMP280;9205;52.032;4.314;2023-03-01T00:54:52;103220.06;;;4.43
18161;BMP280;9205;52.032;4.314;2023-03-01T00:57:22;103215.09;;;4.44
18161;BMP280;9205;52.032;4.314;2023-03-01T00:59:50;103218.28;;;4.40
18161;BMP280;9205;52.032;4.314;2023-03-01T01:02:18;103220.88;;;4.42
18161;BMP280;9205;52.032;4.314;2023-03-01T01:04:49;103221.72;;;4.42
18161;BMP280;9205;52.032;4.314;2023-03-01T01:07:21;103218.41;;;4.43
18161;BMP280;9205;52.032;4.314;2023-03-01T01:09:53;103209.03;;;4.39
18161;BMP280;9205;52.032;4.314;2023-03-01T01:12:21;103210.84;;;4.43
18161;BMP280;9205;52.032;4.314;2023-03-01T01:14:48;103218.47;;;4.45
18161;BMP280;9205;52.032;4.314;2023-03-01T01:17:16;103205.56;;;4.37
18161;BMP280;9205;52.032;4.314;2023-03-01T01:19:54;103206.50;;;4.39
18161;BMP280;9205;52.032;4.314;2023-03-01T01:22:24;103207.78;;;4.30
18161;BMP280;9205;52.032;4.314;2023-03-01T01:24:57;103212.88;;;4.31
18161;BMP280;9205;52.032;4.314;2023-03-01T01:27:25;103201.00;;;4.29
18161;BMP280;9205;52.032;4.314;2023-03-01T01:29:53;103195.31;;;4.33
18161;BMP280;9205;52.032;4.314;2023-03-01T01:32:24;103194.34;;;4.29
18161;BMP280;9205;52.032;4.314;2023-03-01T01:34:54;103195.50;;;4.37
18161;BMP280;9205;52.032;4.314;2023-03-01T01:37:27;103179.47;;;4.35
18161;BMP280;9205;52.032;4.314;2023-03-01T01:40:12;103180.22;;;4.33
18161;BMP280;9205;52.032;4.314;2023-03-01T01:42:44;103184.38;;;4.32
18161;BMP280;9205;52.032;4.314;2023-03-01T01:45:34;103181.00;;;4.32
18161;BMP280;9205;52.032;4.314;2023-03-01T01:48:13;103175.00;;;4.28
18161;BMP280;9205;52.032;4.314;2023-03-01T01:50:41;103169.81;;;4.25
18161;BMP280;9205;52.032;4.314;2023-03-01T01:53:15;103162.47;;;4.30
18161;BMP280;9205;52.032;4.314;2023-03-01T01:55:48;103155.78;;;4.30
18161;BMP280;9205;52.032;4.314;2023-03-01T01:58:19;103151.50;;;4.28
18161;BMP280;9205;52.032;4.314;2023-03-01T02:00:49;103154.63;;;4.22
18161;BMP280;9205;52.032;4.314;2023-03-01T02:03:23;103150.25;;;4.18
18161;BMP280;9205;52.032;4.314;2023-03-01T02:06:17;103149.28;;;4.15
18161;BMP280;9205;52.032;4.314;2023-03-01T02:08:50;103143.75;;;4.23
18161;BMP280;9205;52.032;4.314;2023-03-01T02:11:41;103136.22;;;4.23
18161;BMP280;9205;52.032;4.314;2023-03-01T02:14:19;103147.31;;;4.28
18161;BMP280;9205;52.032;4.314;2023-03-01T02:16:52;103152.22;;;4.25
18161;BMP280;9205;52.032;4.314;2023-03-01T02:19:44;103149.50;;;4.21
18161;BMP280;9205;52.032;4.314;2023-03-01T02:22:23;103140.09;;;4.15
18161;BMP280;9205;52.032;4.314;2023-03-01T02:27:55;103123.25;;;4.14
18161;BMP280;9205;52.032;4.314;2023-03-01T02:30:34;103136.69;;;4.15
18161;BMP280;9205;52.032;4.314;2023-03-01T02:33:31;103135.88;;;4.16
18161;BMP280;9205;52.032;4.314;2023-03-01T02:36:00;103143.50;;;4.17
18161;BMP280;9205;52.032;4.314;2023-03-01T02:38:29;103136.72;;;4.16
18161;BMP280;9205;52.032;4.314;2023-03-01T02:41:02;103134.97;;;4.14
18161;BMP280;9205;52.032;4.314;2023-03-01T02:43:35;103141.44;;;4.07
18161;BMP280;9205;52.032;4.314;2023-03-01T02:46:44;103130.63;;;4.10
18161;BMP280;9205;52.032;4.314;2023-03-01T02:49:24;103129.50;;;4.03
18161;BMP280;9205;52.032;4.314;2023-03-01T02:52:30;103124.72;;;4.09
18161;BMP280;9205;52.032;4.314;2023-03-01T02:55:09;103126.34;;;4.07
18161;BMP280;9205;52.032;4.314;2023-03-01T02:57:44;103124.66;;;4.08
18161;BMP280;9205;52.032;4.314;2023-03-01T03:00:21;103109.44;;;4.05
18161;BMP280;9205;52.032;4.314;2023-03-01T03:02:54;103109.44;;;4.05
18161;BMP280;9205;52.032;4.314;2023-03-01T03:05:27;103102.63;;;4.02
18161;BMP280;9205;52.032;4.314;2023-03-01T03:08:01;103113.44;;;4.00
18161;BMP280;9205;52.032;4.314;2023-03-01T03:10:37;103110.81;;;3.97
18161;BMP280;9205;52.032;4.314;2023-03-01T03:13:09;103110.72;;;3.95
18161;BMP280;9205;52.032;4.314;2023-03-01T03:15:38;103108.22;;;3.95
18161;BMP280;9205;52.032;4.314;2023-03-01T03:18:14;103102.25;;;3.93
18161;BMP280;9205;52.032;4.314;2023-03-01T03:20:43;103109.09;;;3.96
18161;BMP280;9205;52.032;4.314;2023-03-01T03:23:20;103102.00;;;3.87
18161;BMP280;9205;52.032;4.314;2023-03-01T03:25:56;103099.31;;;3.83
18161;BMP280;9205;52.032;4.314;2023-03-01T03:28:24;103089.56;;;3.90
18161;BMP280;9205;52.032;4.314;2023-03-01T03:31:06;103084.53;;;3.90
18161;BMP280;9205;52.032;4.314;2023-03-01T03:33:36;103086.91;;;3.87
18161;BMP280;9205;52.032;4.314;2023-03-01T03:36:16;103090.34;;;3.89
18161;BMP280;9205;52.032;4.314;2023-03-01T03:38:48;103091.00;;;3.85
18161;BMP280;9205;52.032;4.314;2023-03-01T03:41:23;103089.25;;;3.83
18161;BMP280;9205;52.032;4.314;2023-03-01T03:43:54;103091.00;;;3.85
18161;BMP280;9205;52.032;4.314;2023-03-01T03:46:22;103095.69;;;3.77
18161;BMP280;9205;52.032;4.314;2023-03-01T03:48:51;103099.84;;;3.76
18161;BMP280;9205;52.032;4.314;2023-03-01T03:51:31;103083.19;;;3.78
18161;BMP280;9205;52.032;4.314;2023-03-01T03:54:02;103092.50;;;3.81
18161;BMP280;9205;52.032;4.314;2023-03-01T03:56:32;103094.16;;;3.80
18161;BMP280;9205;52.032;4.314;2023-03-01T03:59:03;103093.78;;;3.71
18161;BMP280;9205;52.032;4.314;2023-03-01T04:01:34;103089.69;;;3.73
18161;BMP280;9205;52.032;4.314;2023-03-01T04:04:03;103092.81;;;3.68
18161;BMP280;9205;52.032;4.314;2023-03-01T04:06:33;103086.78;;;3.64
18161;BMP280;9205;52.032;4.314;2023-03-01T04:09:02;103082.84;;;3.71
18161;BMP280;9205;52.032;4.314;2023-03-01T04:11:30;103092.00;;;3.69
18161;BMP280;9205;52.032;4.314;2023-03-01T04:14:00;103090.38;;;3.71
18161;BMP280;9205;52.032;4.314;2023-03-01T04:16:33;103081.03;;;3.67
18161;BMP280;9205;52.032;4.314;2023-03-01T04:19:00;103082.66;;;3.66
18161;BMP280;9205;52.032;4.314;2023-03-01T04:21:29;103086.91;;;3.67
18161;BMP280;9205;52.032;4.314;2023-03-01T04:23:57;103086.91;;;3.67
18161;BMP280;9205;52.032;4.314;2023-03-01T04:26:25;103078.25;;;3.61
18161;BMP280;9205;52.032;4.314;2023-03-01T04:28:59;103077.34;;;3.59
18161;BMP280;9205;52.032;4.314;2023-03-01T04:31:29;103070.56;;;3.58
18161;BMP280;9205;52.032;4.314;2023-03-01T04:33:57;103070.13;;;3.47
18161;BMP280;9205;52.032;4.314;2023-03-01T04:36:33;103072.59;;;3.46
18161;BMP280;9205;52.032;4.314;2023-03-01T04:39:04;103086.88;;;3.47
18161;BMP280;9205;52.032;4.314;2023-03-01T04:41:41;103072.78;;;3.50
18161;BMP280;9205;52.032;4.314;2023-03-01T04:44:09;103076.28;;;3.54
18161;BMP280;9205;52.032;4.314;2023-03-01T04:46:37;103078.81;;;3.54
18161;BMP280;9205;52.032;4.314;2023-03-01T04:49:05;103070.44;;;3.55
18161;BMP280;9205;52.032;4.314;2023-03-01T04:51:42;103059.69;;;3.57
18161;BMP280;9205;52.032;4.314;2023-03-01T04:54:15;103056.28;;;3.57
18161;BMP280;9205;52.032;4.314;2023-03-01T04:56:43;103053.03;;;3.59
18161;BMP280;9205;52.032;4.314;2023-03-01T04:59:13;103048.00;;;3.59
18161;BMP280;9205;52.032;4.314;2023-03-01T05:01:43;103042.28;;;3.62
18161;BMP280;9205;52.032;4.314;2023-03-01T05:04:11;103040.56;;;3.61
18161;BMP280;9205;52.032;4.314;2023-03-01T05:06:43;103035.53;;;3.61
18161;BMP280;9205;52.032;4.314;2023-03-01T05:09:14;103033.47;;;3.52
18161;BMP280;9205;52.032;4.314;2023-03-01T05:11:44;103036.06;;;3.54
18161;BMP280;9205;52.032;4.314;2023-03-01T05:14:12;103034.34;;;3.53
18161;BMP280;9205;52.032;4.314;2023-03-01T05:16:40;103034.25;;;3.51
18161;BMP280;9205;52.032;4.314;2023-03-01T05:19:07;103042.34;;;3.44
18161;BMP280;9205;52.032;4.314;2023-03-01T05:21:43;103044.94;;;3.46
18161;BMP280;9205;52.032;4.314;2023-03-01T05:24:32;103033.81;;;3.41
18161;BMP280;9205;52.032;4.314;2023-03-01T05:27:01;103038.66;;;3.36
18161;BMP280;9205;52.032;4.314;2023-03-01T05:29:31;103033.38;;;3.30
18161;BMP280;9205;52.032;4.314;2023-03-01T05:32:04;103032.53;;;3.30
18161;BMP280;9205;52.032;4.314;2023-03-01T05:34:34;103027.56;;;3.31
18161;BMP280;9205;52.032;4.314;2023-03-01T05:37:04;103031.22;;;3.38
18161;BMP280;9205;52.032;4.314;2023-03-01T05:39:34;103021.84;;;3.35
18161;BMP280;9205;52.032;4.314;2023-03-01T05:42:02;103022.75;;;3.36
18161;BMP280;9205;52.032;4.314;2023-03-01T05:44:30;103013.34;;;3.32
18161;BMP280;9205;52.032;4.314;2023-03-01T05:46:57;103012.97;;;3.23
18161;BMP280;9205;52.032;4.314;2023-03-01T05:49:34;103009.00;;;3.28
18161;BMP280;9205;52.032;4.314;2023-03-01T05:52:03;103008.06;;;3.26
18161;BMP280;9205;52.032;4.314;2023-03-01T05:54:39;103007.03;;;3.21
18161;BMP280;9205;52.032;4.314;2023-03-01T05:57:09;103013.03;;;3.24
18161;BMP280;9205;52.032;4.314;2023-03-01T05:59:39;103011.31;;;3.23
18161;BMP280;9205;52.032;4.314;2023-03-01T06:02:07;103012.97;;;3.23
18161;BMP280;9205;52.032;4.314;2023-03-01T06:04:36;103007.03;;;3.21
18161;BMP280;9205;52.032;4.314;2023-03-01T06:07:08;103010.31;;;3.20
18161;BMP280;9205;52.032;4.314;2023-03-01T06:09:35;103003.47;;;3.16
18161;BMP280;9205;52.032;4.314;2023-03-01T06:12:04;103010.06;;;3.14
18161;BMP280;9205;52.032;4.314;2023-03-01T06:14:32;102991.56;;;3.12
18161;BMP280;9205;52.032;4.314;2023-03-01T06:17:00;103000.97;;;3.16
18161;BMP280;9205;52.032;4.314;2023-03-01T06:19:28;103009.28;;;3.15
18161;BMP280;9205;52.032;4.314;2023-03-01T06:21:55;103006.88;;;3.18
18161;BMP280;9205;52.032;4.314;2023-03-01T06:24:24;103012.00;;;3.19
18161;BMP280;9205;52.032;4.314;2023-03-01T06:26:53;103013.78;;;3.22
18161;BMP280;9205;52.032;4.314;2023-03-01T06:29:21;103012.97;;;3.23
18161;BMP280;9205;52.032;4.314;2023-03-01T06:31:52;103009.53;;;3.21
18161;BMP280;9205;52.032;4.314;2023-03-01T06:34:20;103017.88;;;3.20
18161;BMP280;9205;52.032;4.314;2023-03-01T06:36:47;103007.75;;;3.18
18161;BMP280;9205;52.032;4.314;2023-03-01T06:39:17;103005.78;;;3.11
18161;BMP280;9205;52.032;4.314;2023-03-01T06:41:47;103006.63;;;3.12
18161;BMP280;9205;52.032;4.314;2023-03-01T06:44:15;103004.81;;;3.08
18161;BMP280;9205;52.032;4.314;2023-03-01T06:46:42;103005.69;;;3.10
18161;BMP280;9205;52.032;4.314;2023-03-01T06:49:14;103014.72;;;3.05
18161;BMP280;9205;52.032;4.314;2023-03-01T06:51:43;103014.97;;;3.11
18161;BMP280;9205;52.032;4.314;2023-03-01T06:54:11;103013.13;;;3.07
18161;BMP280;9205;52.032;4.314;2023-03-01T06:56:39;103019.00;;;3.08
18161;BMP280;9205;52.032;4.314;2023-03-01T06:59:08;103011.50;;;3.09
18161;BMP280;9205;52.032;4.314;2023-03-01T07:01:35;103021.50;;;3.08
18161;BMP280;9205;52.032;4.314;2023-03-01T07:04:03;103008.81;;;3.05
18161;BMP280;9205;52.032;4.314;2023-03-01T07:06:32;103019.59;;;3.02
18161;BMP280;9205;52.032;4.314;2023-03-01T07:09:00;103012.97;;;3.04
18161;BMP280;9205;52.032;4.314;2023-03-01T07:11:28;103010.53;;;3.06
18161;BMP280;9205;52.032;4.314;2023-03-01T07:13:55;102999.50;;;3.02
18161;BMP280;9205;52.032;4.314;2023-03-01T07:16:28;103006.91;;;2.99
18161;BMP280;9205;52.032;4.314;2023-03-01T07:18:57;103008.75;;;3.03
18161;BMP280;9205;52.032;4.314;2023-03-01T07:21:25;103002.78;;;3.01
18161;BMP280;9205;52.032;4.314;2023-03-01T07:23:55;103008.09;;;3.07
18161;BMP280;9205;52.032;4.314;2023-03-01T07:26:24;103010.66;;;3.08
18161;BMP280;9205;52.032;4.314;2023-03-01T07:28:52;103010.81;;;3.11
18161;BMP280;9205;52.032;4.314;2023-03-01T07:31:19;103020.22;;;3.17
18161;BMP280;9205;52.032;4.314;2023-03-01T07:33:48;103015.34;;;3.20
18161;BMP280;9205;52.032;4.314;2023-03-01T07:36:16;103018.91;;;3.25
18161;BMP280;9205;52.032;4.314;2023-03-01T07:38:43;103020.75;;;3.29
18161;BMP280;9205;52.032;4.314;2023-03-01T07:41:11;103030.94;;;3.32
18161;BMP280;9205;52.032;4.314;2023-03-01T07:43:38;103017.75;;;3.37
18161;BMP280;9205;52.032;4.314;2023-03-01T07:46:06;103014.66;;;3.43
18161;BMP280;9205;52.032;4.314;2023-03-01T07:48:34;103017.03;;;3.40
18161;BMP280;9205;52.032;4.314;2023-03-01T07:51:05;103022.88;;;3.39
18161;BMP280;9205;52.032;4.314;2023-03-01T07:53:33;103023.91;;;3.44
18161;BMP280;9205;52.032;4.314;2023-03-01T07:56:03;103021.41;;;3.44
18161;BMP280;9205;52.032;4.314;2023-03-01T07:58:34;103013.81;;;3.42
18161;BMP280;9205;52.032;4.314;2023-03-01T08:01:02;103012.19;;;3.44
18161;BMP280;9205;52.032;4.314;2023-03-01T08:03:30;103015.03;;;3.52
18161;BMP280;9205;52.032;4.314;2023-03-01T08:06:00;103017.59;;;3.53
18161;BMP280;9205;52.032;4.314;2023-03-01T08:08:30;103020.28;;;3.58
18161;BMP280;9205;52.032;4.314;2023-03-01T08:10:59;103019.75;;;3.65
18161;BMP280;9205;52.032;4.314;2023-03-01T08:13:27;103008.25;;;3.70
18161;BMP280;9205;52.032;4.314;2023-03-01T08:16:01;103010.84;;;3.73
18161;BMP280;9205;52.032;4.314;2023-03-01T08:18:29;103010.06;;;3.74
18161;BMP280;9205;52.032;4.314;2023-03-01T08:21:01;103005.44;;;3.84
18161;BMP280;9205;52.032;4.314;2023-03-01T08:23:30;103008.00;;;3.85
18161;BMP280;9205;52.032;4.314;2023-03-01T08:26:05;103004.78;;;3.88
18161;BMP280;9205;52.032;4.314;2023-03-01T08:28:33;103004.22;;;3.95
18161;BMP280;9205;52.032;4.314;2023-03-01T08:31:13;102995.13;;;3.98
18161;BMP280;9205;52.032;4.314;2023-03-01T08:33:41;102991.13;;;4.03
18161;BMP280;9205;52.032;4.314;2023-03-01T08:36:09;103000.75;;;4.13
18161;BMP280;9205;52.032;4.314;2023-03-01T08:38:38;102992.06;;;4.27
18161;BMP280;9205;52.032;4.314;2023-03-01T08:41:05;102989.00;;;4.36
18161;BMP280;9205;52.032;4.314;2023-03-01T08:43:33;102984.41;;;4.46
18161;BMP280;9205;52.032;4.314;2023-03-01T08:46:01;102984.88;;;4.60
18161;BMP280;9205;52.032;4.314;2023-03-01T08:48:29;102986.66;;;4.62
18161;BMP280;9205;52.032;4.314;2023-03-01T08:50:56;102985.84;;;4.63
18161;BMP280;9205;52.032;4.314;2023-03-01T08:53:24;102992.75;;;4.68
18161;BMP280;9205;52.032;4.314;2023-03-01T08:55:53;102991.59;;;4.82
18161;BMP280;9205;52.032;4.314;2023-03-01T08:58:21;102992.06;;;4.96
18161;BMP280;9205;52.032;4.314;2023-03-01T09:00:48;102998.78;;;4.95
18161;BMP280;9205;52.032;4.314;2023-03-01T09:03:21;103003.47;;;4.85
18161;BMP280;9205;52.032;4.314;2023-03-01T09:05:51;103005.25;;;4.89
18161;BMP280;9205;52.032;4.314;2023-03-01T09:08:25;103005.16;;;5.09
18161;BMP280;9205;52.032;4.314;2023-03-01T09:11:04;103000.50;;;5.21
18161;BMP280;9205;52.032;4.314;2023-03-01T09:13:33;102998.38;;;5.32
18161;BMP280;9205;52.032;4.314;2023-03-01T09:16:04;102998.88;;;5.46
18161;BMP280;9205;52.032;4.314;2023-03-01T09:18:36;102989.00;;;5.52
18161;BMP280;9205;52.032;4.314;2023-03-01T09:21:05;102983.66;;;5.43
18161;BMP280;9205;52.032;4.314;2023-03-01T09:23:38;102979.72;;;5.51
18161;BMP280;9205;52.032;4.314;2023-03-01T09:26:14;102980.09;;;5.63
18161;BMP280;9205;52.032;4.314;2023-03-01T09:28:44;102973.69;;;5.73
18161;BMP280;9205;52.032;4.314;2023-03-01T09:31:24;102977.06;;;5.73
18161;BMP280;9205;52.032;4.314;2023-03-01T09:33:53;102980.19;;;5.91
18161;BMP280;9205;52.032;4.314;2023-03-01T09:36:23;102976.88;;;5.92
18161;BMP280;9205;52.032;4.314;2023-03-01T09:38:57;102979.56;;;5.98
18161;BMP280;9205;52.032;4.314;2023-03-01T09:41:43;102982.22;;;6.03
18161;BMP280;9205;52.032;4.314;2023-03-01T09:44:25;102974.78;;;6.07
18161;BMP280;9205;52.032;4.314;2023-03-01T09:46:55;102979.28;;;6.17
18161;BMP280;9205;52.032;4.314;2023-03-01T09:52:30;102956.03;;;6.27
18161;BMP280;9205;52.032;4.314;2023-03-01T09:55:55;102957.25;;;6.39
18161;BMP280;9205;52.032;4.314;2023-03-01T09:58:51;102947.22;;;6.42
18161;BMP280;9205;52.032;4.314;2023-03-01T10:01:38;102947.41;;;6.48
18161;BMP280;9205;52.032;4.314;2023-03-01T10:04:45;102945.00;;;6.53
18161;BMP280;9205;52.032;4.314;2023-03-01T10:07:33;102943.28;;;6.52
18161;BMP280;9205;52.032;4.314;2023-03-01T10:10:07;102940.09;;;6.57
18161;BMP280;9205;52.032;4.314;2023-03-01T10:13:00;102938.66;;;6.67
18161;BMP280;9205;52.032;4.314;2023-03-01T10:15:44;102937.19;;;6.75
18161;BMP280;9205;52.032;4.314;2023-03-01T10:18:34;102941.69;;;6.85
18161;BMP280;9205;52.032;4.314;2023-03-01T10:21:17;102931.72;;;6.91
18161;BMP280;9205;52.032;4.314;2023-03-01T10:23:52;102942.00;;;6.98
18161;BMP280;9205;52.032;4.314;2023-03-01T10:26:41;102927.94;;;7.07
18161;BMP280;9205;52.032;4.314;2023-03-01T10:29:14;102929.38;;;6.98
18161;BMP280;9205;52.032;4.314;2023-03-01T10:31:46;102932.91;;;7.04
18161;BMP280;9205;52.032;4.314;2023-03-01T10:34:20;102917.91;;;7.10
18161;BMP280;9205;52.032;4.314;2023-03-01T10:36:51;102921.41;;;7.15
18161;BMP280;9205;52.032;4.314;2023-03-01T10:39:28;102910.44;;;7.15
18161;BMP280;9205;52.032;4.314;2023-03-01T10:42:03;102895.50;;;7.24
18161;BMP280;9205;52.032;4.314;2023-03-01T10:44:44;102895.47;;;7.22
18161;BMP280;9205;52.032;4.314;2023-03-01T10:47:19;102903.31;;;7.33
18161;BMP280;9205;52.032;4.314;2023-03-01T10:50:02;102886.59;;;7.39
18161;BMP280;9205;52.032;4.314;2023-03-01T10:52:34;102901.09;;;7.46
18161;BMP280;9205;52.032;4.314;2023-03-01T10:55:23;102886.75;;;7.45
18161;BMP280;9205;52.032;4.314;2023-03-01T10:58:15;102902.13;;;7.54
18161;BMP280;9205;52.032;4.314;2023-03-01T11:00:52;102902.28;;;7.60
18161;BMP280;9205;52.032;4.314;2023-03-01T11:03:24;102899.84;;;7.65
18161;BMP280;9205;52.032;4.314;2023-03-01T11:06:01;102886.59;;;7.76
18161;BMP280;9205;52.032;4.314;2023-03-01T11:08:42;102886.72;;;7.82
18161;BMP280;9205;52.032;4.314;2023-03-01T11:11:32;102876.72;;;7.86
18161;BMP280;9205;52.032;4.314;2023-03-01T11:14:06;102882.69;;;7.90
18161;BMP280;9205;52.032;4.314;2023-03-01T11:16:37;102877.69;;;7.93
18161;BMP280;9205;52.032;4.314;2023-03-01T11:19:19;102864.16;;;7.92
18161;BMP280;9205;52.032;4.314;2023-03-01T11:22:04;102858.47;;;8.02
18161;BMP280;9205;52.032;4.314;2023-03-01T11:24:40;102850.00;;;8.00
18161;BMP280;9205;52.032;4.314;2023-03-01T11:27:23;102849.34;;;8.09
18161;BMP280;9205;52.032;4.314;2023-03-01T11:30:00;102840.16;;;8.14
18161;BMP280;9205;52.032;4.314;2023-03-01T11:32:38;102851.19;;;8.16
18161;BMP280;9205;52.032;4.314;2023-03-01T11:35:17;102843.81;;;8.28
18161;BMP280;9205;52.032;4.314;2023-03-01T11:38:04;102840.63;;;8.36
18161;BMP280;9205;52.032;4.314;2023-03-01T11:40:44;102844.19;;;8.47
18161;BMP280;9205;52.032;4.314;2023-03-01T11:43:22;102843.38;;;8.48
18161;BMP280;9205;52.032;4.314;2023-03-01T11:46:21;102841.06;;;8.60
18161;BMP280;9205;52.032;4.314;2023-03-01T11:49:06;102841.28;;;8.73
18161;BMP280;9205;52.032;4.314;2023-03-01T11:51:51;102844.06;;;8.85
18161;BMP280;9205;52.032;4.314;2023-03-01T11:54:37;102826.31;;;8.85
18161;BMP280;9205;52.032;4.314;2023-03-01T11:57:19;102823.06;;;8.95
18161;BMP280;9205;52.032;4.314;2023-03-01T12:00:40;102817.16;;;8.93
18161;BMP280;9205;52.032;4.314;2023-03-01T12:03:28;102821.56;;;9.05
18161;BMP280;9205;52.032;4.314;2023-03-01T12:06:31;102822.41;;;9.05
18161;BMP280;9205;52.032;4.314;2023-03-01T12:09:23;102814.94;;;9.16
18161;BMP280;9205;52.032;4.314;2023-03-01T12:12:30;102799.63;;;9.08
18161;BMP280;9205;52.032;4.314;2023-03-01T12:15:38;102793.91;;;9.21
18161;BMP280;9205;52.032;4.314;2023-03-01T12:18:30;102783.88;;;9.30
18161;BMP280;9205;52.032;4.314;2023-03-01T12:21:17;102781.41;;;9.34
18161;BMP280;9205;52.032;4.314;2023-03-01T12:24:29;102766.88;;;9.23
18161;BMP280;9205;52.032;4.314;2023-03-01T12:27:25;102759.28;;;9.26
18161;BMP280;9205;52.032;4.314;2023-03-01T12:30:09;102752.56;;;9.30
18161;BMP280;9205;52.032;4.314;2023-03-01T12:33:06;102757.84;;;9.41
18161;BMP280;9205;52.032;4.314;2023-03-01T12:36:10;102750.28;;;9.46
18161;BMP280;9205;52.032;4.314;2023-03-01T12:38:44;102756.19;;;9.46
18161;BMP280;9205;52.032;4.314;2023-03-01T12:41:50;102755.47;;;9.55
18161;BMP280;9205;52.032;4.314;2023-03-01T12:44:42;102751.38;;;9.66
18161;BMP280;9205;52.032;4.314;2023-03-01T12:47:30;102747.16;;;9.66
18161;BMP280;9205;52.032;4.314;2023-03-01T12:50:11;102756.38;;;9.61
18161;BMP280;9205;52.032;4.314;2023-03-01T12:52:46;102746.09;;;9.49
18161;BMP280;9205;52.032;4.314;2023-03-01T12:55:27;102752.88;;;9.52
18161;BMP280;9205;52.032;4.314;2023-03-01T12:58:10;102749.41;;;9.44
18161;BMP280;9205;52.032;4.314;2023-03-01T13:00:55;102744.31;;;9.44
18161;BMP280;9205;52.032;4.314;2023-03-01T13:03:51;102748.59;;;9.46
18161;BMP280;9205;52.032;4.314;2023-03-01T13:06:32;102739.31;;;9.47
18161;BMP280;9205;52.032;4.314;2023-03-01T13:09:11;102742.69;;;9.47
18161;BMP280;9205;52.032;4.314;2023-03-01T13:11:42;102731.81;;;9.57
18161;BMP280;9205;52.032;4.314;2023-03-01T13:14:44;102748.72;;;9.57
18161;BMP280;9205;52.032;4.314;2023-03-01T13:17:40;102732.69;;;9.59
18161;BMP280;9205;52.032;4.314;2023-03-01T13:20:17;102738.72;;;9.69
18161;BMP280;9205;52.032;4.314;2023-03-01T13:22:46;102742.13;;;9.71
18161;BMP280;9205;52.032;4.314;2023-03-01T13:25:20;102736.94;;;9.62
18161;BMP280;9205;52.032;4.314;2023-03-01T13:27:47;102732.75;;;9.67
18161;BMP280;9205;52.032;4.314;2023-03-01T13:30:41;102729.56;;;9.81
18161;BMP280;9205;52.032;4.314;2023-03-01T13:33:42;102720.25;;;9.80
18161;BMP280;9205;52.032;4.314;2023-03-01T13:36:45;102719.31;;;9.75
18161;BMP280;9205;52.032;4.314;2023-03-01T13:39:30;102713.44;;;9.79
18161;BMP280;9205;52.032;4.314;2023-03-01T13:42:03;102687.28;;;9.85
18161;BMP280;9205;52.032;4.314;2023-03-01T13:44:34;102694.94;;;9.89
18161;BMP280;9205;52.032;4.314;2023-03-01T13:47:16;102687.31;;;9.88
18161;BMP280;9205;52.032;4.314;2023-03-01T13:49:49;102678.09;;;9.97
18161;BMP280;9205;52.032;4.314;2023-03-01T13:52:43;102679.03;;;10.04
18161;BMP280;9205;52.032;4.314;2023-03-01T13:55:19;102676.47;;;10.01
18161;BMP280;9205;52.032;4.314;2023-03-01T13:57:53;102662.00;;;9.97
18161;BMP280;9205;52.032;4.314;2023-03-01T14:00:35;102668.91;;;10.07
18161;BMP280;9205;52.032;4.314;2023-03-01T14:03:11;102657.97;;;10.12
18161;BMP280;9205;52.032;4.314;2023-03-01T14:05:41;102658.78;;;10.11
18161;BMP280;9205;52.032;4.314;2023-03-01T14:08:22;102657.09;;;10.12
18161;BMP280;9205;52.032;4.314;2023-03-01T14:14:03;102651.97;;;10.06
18161;BMP280;9205;52.032;4.314;2023-03-01T14:16:44;102651.13;;;10.07
18161;BMP280;9205;52.032;4.314;2023-03-01T14:19:19;102643.50;;;10.05
18161;BMP280;9205;52.032;4.314;2023-03-01T14:22:03;102642.50;;;9.96
18161;BMP280;9205;52.032;4.314;2023-03-01T14:24:47;102643.25;;;9.81
18161;BMP280;9205;52.032;4.314;2023-03-01T14:27:15;102632.16;;;9.73
18161;BMP280;9205;52.032;4.314;2023-03-01T14:29:54;102618.72;;;9.85
18161;BMP280;9205;52.032;4.314;2023-03-01T14:32:26;102623.00;;;9.89
18161;BMP280;9205;52.032;4.314;2023-03-01T14:34:57;102623.88;;;9.91
18161;BMP280;9205;52.032;4.314;2023-03-01T14:37:28;102616.28;;;9.95
18161;BMP280;9205;52.032;4.314;2023-03-01T14:39:57;102606.13;;;9.95
18161;BMP280;9205;52.032;4.314;2023-03-01T14:42:34;102590.13;;;10.01
18161;BMP280;9205;52.032;4.314;2023-03-01T14:45:04;102603.72;;;10.06
18161;BMP280;9205;52.032;4.314;2023-03-01T14:47:35;102588.44;;;10.03
18161;BMP280;9205;52.032;4.314;2023-03-01T14:50:22;102583.28;;;9.94
18161;BMP280;9205;52.032;4.314;2023-03-01T14:52:54;102585.91;;;10.01
18161;BMP280;9205;52.032;4.314;2023-03-01T14:55:28;102591.00;;;10.06
18161;BMP280;9205;52.032;4.314;2023-03-01T14:57:57;102581.56;;;9.96
18161;BMP280;9205;52.032;4.314;2023-03-01T15:00:34;102584.19;;;9.99
18161;BMP280;9205;52.032;4.314;2023-03-01T15:03:11;102586.66;;;9.93
18161;BMP280;9205;52.032;4.314;2023-03-01T15:05:43;102569.66;;;9.87
18161;BMP280;9205;52.032;4.314;2023-03-01T15:08:19;102581.47;;;9.82
18161;BMP280;9205;52.032;4.314;2023-03-01T15:10:59;102572.06;;;9.72
18161;BMP280;9205;52.032;4.314;2023-03-01T15:13:35;102574.56;;;9.69
18161;BMP280;9205;52.032;4.314;2023-03-01T15:16:11;102578.78;;;9.66
18161;BMP280;9205;52.032;4.314;2023-03-01T15:18:46;102566.88;;;9.59